CYLW/YLW METAR and TAF weather

Enter ICAO airport designator
Station Type Date Time Source
CYLW METAR 2022/06/28 10:00 UTC NOAA

CYLW 281000Z AUTO VRB02KT 9SM BKN160 17/12 A2988 RMK SLP112 DENSITY ALT 2100FT


Station Type Date Time Source
CYLW Decoded METAR 2022/06/28 10:00 UTC NOAA

Kelowna Airport, Canada (CYLW) 49-58N 119-23W 430M
Jun 28, 2022 - 06:00 AM EDT / 2022.06.28 1000 UTC
Wind: Variable at 2 MPH (2 KT):0
Visibility: 9 mile(s):0
Sky conditions: mostly cloudy
Temperature: 62 F (17 C)
Dew Point: 53 F (12 C)
Relative Humidity: 72%
Pressure (altimeter): 29.88 in. Hg (1011 hPa)
ob: CYLW 281000Z AUTO VRB02KT 9SM BKN160 17/12 A2988 RMK SLP112 DENSITY ALT 2100FT
cycle: 10

Station Type Date Time Source
CYLW TAF 2022/06/28 07:42 UTC NOAA

TAF CYLW 280640Z 2807/2819 VRB03KT P6SM BKN150
TEMPO 2807/2819 34012G22KT P6SM -SHRA VCTS SCT070CB BKN120
RMK FCST BASED ON AUTO OBS. NXT FCST BY 281300Z

Example: see airport list